Time;durP1;ratioP1;P1;durP2;ratioP2;P2;SDS_P1;SDS_P2;PMS_P1;PMS_P2;Temp;Humidity;BMP_temperature;BMP_pressure;BME280_temperature;BME280_humidity;BME280_pressure;Samples;Min_cycle;Max_cycle;Signal;HPM_P1;HPM_P2
2023/10/13 00:01:24;;;;;;;;;7.67;6.33;;;;;24.94;41.85;100246.94;5079710;27;46180;-76
2023/10/13 00:03:53;;;;;;;;;7.33;7.33;;;;;25.04;41.42;100246.66;5079792;27;45314;-76
2023/10/13 00:06:19;;;;;;;;;7.00;7.00;;;;;25.08;41.82;100246.47;5079819;27;45430;-72
2023/10/13 00:08:45;;;;;;;;;7.00;6.67;;;;;25.18;41.25;100244.34;5080051;27;45318;-76
2023/10/13 00:11:13;;;;;;;;;6.33;6.00;;;;;25.26;41.06;100247.66;5079887;27;45440;-74
2023/10/13 00:13:50;;;;;;;;;6.00;6.00;;;;;25.29;40.96;100246.69;5080648;27;45341;-76
2023/10/13 00:16:27;;;;;;;;;8.33;6.00;;;;;25.29;40.84;100247.56;5076997;27;45381;-75
2023/10/13 00:18:57;;;;;;;;;6.67;6.33;;;;;25.30;41.11;100249.28;5079817;27;45470;-76
2023/10/13 00:21:33;;;;;;;;;8.00;6.33;;;;;25.33;41.19;100256.34;5079601;27;45518;-76
2023/10/13 00:24:05;;;;;;;;;6.33;5.67;;;;;25.32;41.14;100251.91;5077897;27;45346;-76
2023/10/13 00:26:36;;;;;;;;;7.00;6.00;;;;;25.33;41.11;100253.69;5082434;27;45891;-76
2023/10/13 00:31:42;;;;;;;;;6.00;6.00;;;;;25.34;40.52;100245.59;5082453;27;45573;-76
2023/10/13 00:34:11;;;;;;;;;6.00;6.00;;;;;25.35;40.63;100250.00;5078922;27;45515;-74
2023/10/13 00:36:47;;;;;;;;;7.33;6.00;;;;;25.32;40.50;100246.56;5078603;27;45484;-76
2023/10/13 00:39:15;;;;;;;;;7.67;6.67;;;;;25.38;40.93;100243.69;5080729;27;45769;-75
2023/10/13 00:41:57;;;;;;;;;6.67;5.67;;;;;25.34;40.34;100240.22;5080869;27;45401;-76
2023/10/13 00:44:37;;;;;;;;;7.33;5.33;;;;;25.24;40.62;100221.91;5079790;27;45516;-75
2023/10/13 00:47:07;;;;;;;;;4.67;3.67;;;;;25.22;40.45;100207.72;5077597;27;45551;-76
2023/10/13 00:49:39;;;;;;;;;6.00;6.00;;;;;25.40;39.83;100233.78;5079895;27;45482;-76
2023/10/13 00:52:06;;;;;;;;;8.00;5.00;;;;;25.39;39.88;100226.72;5080949;27;46114;-76
2023/10/13 00:54:35;;;;;;;;;6.67;6.00;;;;;25.33;40.10;100216.25;5081112;27;45526;-76
2023/10/13 00:57:07;;;;;;;;;6.67;6.00;;;;;25.41;39.67;100230.22;5078626;27;45367;-77
2023/10/13 00:59:34;;;;;;;;;5.00;5.00;;;;;25.43;39.19;100223.00;5079709;27;45528;-76
2023/10/13 01:02:25;;;;;;;;;5.00;5.00;;;;;25.43;38.77;100216.75;5080588;27;45452;-77
2023/10/13 01:04:46;;;;;;;;;7.67;6.67;;;;;25.42;38.81;100223.06;5079053;27;45469;-75
2023/10/13 01:07:12;;;;;;;;;5.00;5.00;;;;;25.39;38.77;100219.56;5092999;27;45567;-76
2023/10/13 01:09:42;;;;;;;;;5.33;5.33;;;;;25.39;38.69;100216.03;5099696;27;45378;-76
2023/10/13 01:12:08;;;;;;;;;6.00;5.00;;;;;25.36;38.85;100216.13;5099246;27;45408;-76
2023/10/13 01:14:35;;;;;;;;;5.00;4.00;;;;;25.34;38.50;100212.63;5098432;27;45542;-75
2023/10/13 01:17:04;;;;;;;;;4.00;4.00;;;;;25.32;38.43;100211.81;5099700;27;45405;-76
2023/10/13 01:19:38;;;;;;;;;6.00;6.00;;;;;25.29;38.17;100212.81;5097808;27;45481;-76
2023/10/13 01:22:06;;;;;;;;;5.00;4.67;;;;;25.31;37.86;100204.75;5098428;27;46071;-76
2023/10/13 01:24:34;;;;;;;;;4.67;4.00;;;;;25.32;37.12;100196.63;5098747;27;45478;-76
2023/10/13 01:27:17;;;;;;;;;5.33;5.33;;;;;25.18;36.83;100173.03;5099017;27;45270;-75
2023/10/13 01:29:48;;;;;;;;;4.00;3.00;;;;;25.32;37.00;100191.28;5069838;27;45405;-76
2023/10/13 01:32:15;;;;;;;;;4.00;4.00;;;;;25.30;36.72;100190.47;5098881;27;45432;-75
2023/10/13 01:34:45;;;;;;;;;3.67;3.00;;;;;25.35;36.19;100185.84;5098844;27;45361;-76
2023/10/13 01:37:11;;;;;;;;;6.33;5.33;;;;;25.18;35.59;100140.97;5098919;27;45550;-76
2023/10/13 01:39:37;;;;;;;;;6.00;5.00;;;;;25.42;35.54;100181.13;5099509;27;45543;-76
2023/10/13 01:42:03;;;;;;;;;6.00;5.00;;;;;25.47;34.72;100167.59;5098417;27;45527;-76
2023/10/13 01:44:30;;;;;;;;;4.33;4.33;;;;;25.54;35.12;100166.44;5098945;27;45402;-75
2023/10/13 01:47:06;;;;;;;;;5.00;5.00;;;;;25.54;34.76;100155.72;5098464;27;45327;-76
2023/10/13 01:49:47;;;;;;;;;6.00;4.67;;;;;25.60;34.37;100156.38;5097849;27;45598;-75
2023/10/13 01:52:15;;;;;;;;;6.33;6.00;;;;;25.59;34.55;100153.75;5097802;27;46144;-75
2023/10/13 01:54:44;;;;;;;;;4.67;4.33;;;;;25.53;34.55;100144.16;5098951;27;45337;-76
2023/10/13 01:57:14;;;;;;;;;6.00;5.00;;;;;25.49;34.51;100126.50;5097679;27;45402;-76
2023/10/13 01:59:44;;;;;;;;;5.00;4.00;;;;;25.40;34.52;100108.13;5098678;27;45757;-73
2023/10/13 02:02:12;;;;;;;;;6.00;6.00;;;;;25.65;33.95;100137.47;5097673;27;46158;-72
2023/10/13 02:04:48;;;;;;;;;4.67;4.00;;;;;25.66;33.71;100144.56;5098401;27;45367;-71
2023/10/13 02:07:15;;;;;;;;;5.33;5.33;;;;;25.70;33.72;100131.94;5097632;27;45543;-71
2023/10/13 02:09:42;;;;;;;;;4.67;4.67;;;;;25.69;33.45;100132.88;5058243;28;45508;-72
2023/10/13 02:12:09;;;;;;;;;5.67;4.67;;;;;25.68;33.75;100121.28;5057627;28;45437;-71
2023/10/13 02:14:38;;;;;;;;;5.00;5.00;;;;;25.75;33.50;100129.97;5063983;27;45452;-71
2023/10/13 02:17:13;;;;;;;;;5.00;4.00;;;;;25.77;33.42;100128.09;5098152;27;45430;-76
2023/10/13 02:19:43;;;;;;;;;4.00;4.00;;;;;25.76;33.52;100121.00;5097860;27;45180;-75
2023/10/13 02:22:10;;;;;;;;;5.00;5.00;;;;;25.77;33.11;100117.41;5097148;27;45728;-76
2023/10/13 02:24:39;;;;;;;;;5.00;5.00;;;;;25.85;33.16;100117.97;5096594;27;45541;-75
2023/10/13 02:27:13;;;;;;;;;6.00;6.00;;;;;25.64;33.31;100057.28;5097739;27;45473;-76
2023/10/13 02:29:45;;;;;;;;;3.00;3.00;;;;;25.78;32.98;100100.41;5097651;27;45455;-76
2023/10/13 02:32:20;;;;;;;;;5.00;5.00;;;;;25.83;32.90;100101.09;5096837;27;45587;-75
2023/10/13 02:34:46;;;;;;;;;4.00;4.00;;;;;25.85;32.86;100095.69;5098036;27;45701;-76
2023/10/13 02:37:13;;;;;;;;;5.33;5.00;;;;;25.85;32.75;100085.84;5097816;27;45539;-75
2023/10/13 02:39:42;;;;;;;;;4.67;4.00;;;;;25.88;33.01;100088.38;5098384;27;45365;-76
2023/10/13 02:42:27;;;;;;;;;4.00;4.00;;;;;25.90;32.88;100086.53;5096700;27;45494;-75
2023/10/13 02:44:57;;;;;;;;;5.00;4.00;;;;;25.78;32.33;100060.25;5097828;27;45396;-77
2023/10/13 02:47:24;;;;;;;;;5.67;4.67;;;;;25.95;32.40;100083.69;5097351;27;45437;-77
2023/10/13 02:49:49;;;;;;;;;4.33;4.33;;;;;26.03;31.89;100076.22;5098353;27;45488;-77
2023/10/13 02:52:15;;;;;;;;;5.00;4.00;;;;;26.05;32.21;100078.84;5097513;27;45296;-76
2023/10/13 02:54:50;;;;;;;;;5.00;4.67;;;;;26.07;31.76;100075.16;5097653;27;45479;-77
2023/10/13 02:57:19;;;;;;;;;5.00;5.00;;;;;26.12;31.90;100083.00;5096933;27;45471;-76
2023/10/13 02:59:56;;;;;;;;;4.00;4.00;;;;;26.11;31.85;100081.25;5098621;27;45378;-77
2023/10/13 03:02:25;;;;;;;;;4.33;4.33;;;;;26.12;32.12;100058.91;5097433;27;45618;-76
2023/10/13 03:05:09;;;;;;;;;4.33;3.67;;;;;26.17;31.98;100065.81;5097627;27;45426;-76
2023/10/13 03:07:36;;;;;;;;;6.67;4.00;;;;;26.16;31.97;100069.44;5098187;27;45230;-75
2023/10/13 03:10:12;;;;;;;;;6.33;5.00;;;;;26.15;32.01;100070.34;5097804;27;45475;-76
2023/10/13 03:12:39;;;;;;;;;5.67;3.33;;;;;26.15;32.07;100070.34;5097848;27;45317;-76
2023/10/13 03:15:12;;;;;;;;;4.00;3.00;;;;;26.14;32.20;100059.69;5096121;27;45529;-76
2023/10/13 03:17:43;;;;;;;;;6.33;4.33;;;;;26.12;32.09;100064.25;5097692;27;45448;-76
2023/10/13 03:20:22;;;;;;;;;5.00;4.00;;;;;26.12;32.03;100066.94;5095379;27;45423;-76
2023/10/13 03:22:52;;;;;;;;;5.33;5.00;;;;;26.00;32.45;100041.53;5096926;27;46250;-76
2023/10/13 03:25:29;;;;;;;;;5.67;4.67;;;;;26.08;32.14;100060.81;5096310;27;45406;-76
2023/10/13 03:30:24;;;;;;;;;5.67;5.00;;;;;26.10;32.53;100076.81;5095962;27;45584;-76
2023/10/13 03:32:54;;;;;;;;;4.33;4.33;;;;;26.10;32.32;100058.09;5097016;27;46299;-76
2023/10/13 03:35:37;;;;;;;;;5.00;4.00;;;;;26.10;32.35;100058.97;5096454;27;45450;-76
2023/10/13 03:38:04;;;;;;;;;4.67;4.00;;;;;26.09;31.99;100051.88;5096064;27;45370;-76
2023/10/13 03:43:09;;;;;;;;;6.00;6.00;;;;;26.13;32.04;100057.97;5096621;27;45748;-76
2023/10/13 03:45:38;;;;;;;;;4.00;4.00;;;;;26.08;32.24;100055.47;5097151;27;45437;-76
2023/10/13 03:48:11;;;;;;;;;5.00;4.33;;;;;26.10;31.62;100044.72;5096546;27;45614;-76
2023/10/13 03:50:46;;;;;;;;;3.33;3.33;;;;;25.96;32.02;100021.19;5096787;27;45480;-76
2023/10/13 03:53:13;;;;;;;;;5.00;5.00;;;;;26.07;31.99;100045.72;5096479;27;46289;-76
2023/10/13 03:55:39;;;;;;;;;5.00;4.33;;;;;26.10;31.83;100042.03;5096593;27;45465;-76
2023/10/13 03:58:06;;;;;;;;;5.00;5.00;;;;;26.12;31.94;100046.41;5096698;27;45210;-77
2023/10/13 04:00:32;;;;;;;;;6.00;6.00;;;;;25.99;32.05;100029.97;5096980;27;45491;-76
2023/10/13 04:03:16;;;;;;;;;6.00;4.67;;;;;26.11;32.02;100046.47;5096220;27;45593;-76
2023/10/13 04:05:45;;;;;;;;;5.67;4.00;;;;;26.04;32.07;100042.28;5090924;27;45483;-76
2023/10/13 04:16:35;;;;;;;;;5.00;5.00;;;;;26.08;32.39;100049.25;5095954;27;45749;-75
2023/10/13 04:30:01;;;;;;;;;2.67;2.67;;;;;25.92;33.08;100043.66;5100530;27;45775;-75
2023/10/13 04:32:29;;;;;;;;;4.67;4.00;;;;;25.89;32.72;100044.66;5101595;27;45460;-75
2023/10/13 04:35:18;;;;;;;;;3.00;3.00;;;;;25.91;32.61;100040.13;5102897;27;45493;-75
2023/10/13 04:37:54;;;;;;;;;4.67;4.00;;;;;25.79;32.50;100003.16;5103084;27;45436;-75
2023/10/13 04:40:24;;;;;;;;;5.00;5.00;;;;;25.90;32.90;100033.03;5103259;27;45540;-75
2023/10/13 04:42:56;;;;;;;;;4.00;4.00;;;;;25.89;32.49;100028.59;5100537;27;45459;-75
2023/10/13 04:50:59;;;;;;;;;4.33;4.00;;;;;25.85;32.73;100031.47;5099495;27;45416;-71
2023/10/13 04:53:33;;;;;;;;;5.00;5.00;;;;;25.83;32.25;100033.34;5069349;27;45586;-71
2023/10/13 06:28:43;;;;;;;;;5.33;5.33;;;;;26.25;30.50;100022.66;5086215;27;45583;-76
2023/10/13 06:31:25;;;;;;;;;6.67;6.00;;;;;26.31;30.13;100026.88;5086422;27;45472;-76
2023/10/13 06:33:51;;;;;;;;;4.67;4.00;;;;;26.10;30.44;99980.47;5087673;27;45655;-76
2023/10/13 06:36:20;;;;;;;;;3.33;3.00;;;;;26.38;29.98;100031.91;5092519;27;45483;-75
2023/10/13 06:38:54;;;;;;;;;4.33;4.33;;;;;26.44;30.09;100033.44;5088588;27;45493;-73
2023/10/13 06:41:30;;;;;;;;;4.67;4.00;;;;;26.50;30.09;100046.56;5088929;27;45463;-77
2023/10/13 06:44:05;;;;;;;;;4.00;4.00;;;;;26.57;30.18;100036.44;5085450;27;46520;-77
2023/10/13 06:46:33;;;;;;;;;5.00;5.00;;;;;26.57;29.76;100031.06;5087199;27;45289;-77
2023/10/13 06:48:59;;;;;;;;;4.00;4.00;;;;;26.70;29.89;100055.53;5089821;27;45420;-74
2023/10/13 06:51:30;;;;;;;;;4.00;4.00;;;;;26.75;29.51;100057.06;5086236;27;45382;-74
2023/10/13 06:53:56;;;;;;;;;5.67;4.33;;;;;26.84;29.65;100061.16;5097422;27;46070;-75
2023/10/13 06:56:26;;;;;;;;;5.00;5.00;;;;;26.91;29.92;100056.38;5097784;27;45436;-74
2023/10/13 06:58:59;;;;;;;;;5.00;5.00;;;;;26.95;30.03;100066.88;5097224;27;45605;-78
2023/10/13 07:01:26;;;;;;;;;6.00;4.67;;;;;26.86;30.62;100064.63;5097846;27;45217;-76
2023/10/13 07:03:55;;;;;;;;;8.00;6.00;;;;;26.97;30.99;100082.91;5095945;27;45973;-78
2023/10/13 07:06:21;;;;;;;;;6.00;5.00;;;;;26.85;31.21;100051.31;5082325;27;45485;-78
2023/10/13 07:08:53;;;;;;;;;6.00;4.67;;;;;27.12;31.44;100082.22;5078656;27;45589;-77
2023/10/13 07:11:42;;;;;;;;;6.00;5.00;;;;;27.17;31.60;100092.72;5079240;27;45434;-77
2023/10/13 07:14:11;;;;;;;;;4.33;4.00;;;;;27.25;31.80;100092.41;5076921;27;46413;-72
2023/10/13 07:16:46;;;;;;;;;5.00;4.00;;;;;27.32;31.97;100088.50;5079416;27;45415;-78
2023/10/13 07:19:17;;;;;;;;;6.33;6.33;;;;;27.42;31.85;100092.47;5077655;27;45524;-80
2023/10/13 07:21:45;;;;;;;;;4.33;4.00;;;;;27.56;31.69;100081.97;5079453;27;45432;-76
2023/10/13 07:24:12;;;;;;;;;6.67;6.00;;;;;27.70;31.09;100073.25;5078300;27;46286;-77
2023/10/13 07:26:46;;;;;;;;;5.00;5.00;;;;;27.82;30.51;100074.47;5079047;27;45610;-79
2023/10/13 07:29:14;;;;;;;;;4.33;4.33;;;;;27.95;29.97;100070.28;5078000;27;45409;-78
2023/10/13 07:31:41;;;;;;;;;6.00;5.67;;;;;28.04;29.73;100063.56;5078038;27;45497;-78
2023/10/13 07:34:26;;;;;;;;;5.33;5.33;;;;;28.19;29.63;100067.25;5075735;27;46501;-77
2023/10/13 07:36:59;;;;;;;;;8.33;6.33;;;;;28.26;30.37;100078.59;5078525;27;45506;-76
2023/10/13 07:39:28;;;;;;;;;4.00;3.67;;;;;28.39;31.21;100084.19;5078293;27;45506;-79
2023/10/13 07:41:54;;;;;;;;;5.00;4.00;;;;;28.41;31.75;100085.88;5094409;27;45164;-77
2023/10/13 07:44:24;;;;;;;;;6.33;5.00;;;;;28.51;31.59;100103.28;5078960;27;46201;-77
2023/10/13 07:46:59;;;;;;;;;5.00;4.00;;;;;28.56;30.94;100106.59;5078494;27;45609;-72
2023/10/13 07:49:30;;;;;;;;;6.33;6.00;;;;;28.65;30.63;100117.81;5077522;27;45544;-75
2023/10/13 07:52:01;;;;;;;;;5.00;4.67;;;;;28.61;30.81;100114.44;5076956;27;45375;-78
2023/10/13 07:54:27;;;;;;;;;6.00;4.33;;;;;28.72;30.49;100121.91;5074528;27;46457;-70
2023/10/13 07:56:55;;;;;;;;;6.33;6.00;;;;;28.65;30.10;100099.88;5077383;27;45558;-71
2023/10/13 07:59:24;;;;;;;;;8.67;6.00;;;;;28.99;29.63;100140.22;5079535;27;45489;-78
2023/10/13 08:04:35;;;;;;;;;4.33;4.00;;;;;29.03;30.24;100140.00;5080836;27;45773;-70
2023/10/13 08:07:27;;;;;;;;;5.67;5.00;;;;;28.98;29.87;100144.75;5080279;27;45293;-71
2023/10/13 08:09:51;;;;;;;;;5.00;5.00;;;;;28.90;30.22;100126.31;5081424;27;45562;-72
2023/10/13 08:12:21;;;;;;;;;4.00;4.00;;;;;28.82;30.39;100109.72;5080873;27;45645;-73
2023/10/13 08:15:09;;;;;;;;;6.00;6.00;;;;;28.99;30.75;100141.13;5084459;27;45639;-73
2023/10/13 08:17:35;;;;;;;;;7.00;6.00;;;;;28.81;30.81;100104.44;5080580;27;45372;-76
2023/10/13 08:20:11;;;;;;;;;5.00;4.00;;;;;28.89;31.33;100129.97;5091525;27;45522;-72
2023/10/13 08:22:38;;;;;;;;;6.67;5.00;;;;;29.09;31.54;100163.88;5096727;27;45448;-73
2023/10/13 08:26:13;;;;;;;;;8.00;6.00;;;;;29.00;31.91;100147.34;5098836;27;46265;-75
2023/10/13 08:30:52;;;;;;;;;7.00;7.00;;;;;29.20;32.24;100173.22;5098976;27;45401;-73
2023/10/13 08:33:18;;;;;;;;;6.00;4.00;;;;;29.26;31.66;100170.19;5098210;27;45332;-74
2023/10/13 08:38:43;;;;;;;;;4.00;4.00;;;;;29.54;30.86;100170.44;5099164;27;46199;-74
2023/10/13 08:43:45;;;;;;;;;4.67;4.00;;;;;29.99;28.82;100175.19;5069350;27;45224;-76
2023/10/13 08:46:24;;;;;;;;;6.00;6.00;;;;;30.14;28.64;100155.44;5099479;27;45588;-78
2023/10/13 08:48:52;;;;;;;;;5.67;5.00;;;;;30.55;28.07;100186.38;5100074;27;45547;-75
2023/10/13 08:51:43;;;;;;;;;10.33;10.33;;;;;30.78;28.66;100190.38;5097871;27;45337;-75
2023/10/13 08:54:19;;;;;;;;;5.00;4.00;;;;;31.23;28.24;100192.13;5098680;27;45443;-79
2023/10/13 08:56:55;;;;;;;;;4.33;4.00;;;;;31.61;28.57;100170.00;5098662;27;45407;-77
2023/10/13 08:59:38;;;;;;;;;8.33;7.67;;;;;31.87;28.80;100162.94;5077860;27;45577;-79
2023/10/13 09:02:17;;;;;;;;;6.00;5.33;;;;;32.36;29.49;100198.53;5099087;27;45642;-79
2023/10/13 09:05:36;;;;;;;;;6.00;6.00;;;;;32.44;29.45;100194.34;5099024;27;45367;-78
2023/10/13 09:07:35;;;;;;;;;6.00;5.67;;;;;32.46;29.20;100203.22;5097595;27;45617;-77
2023/10/13 09:10:11;;;;;;;;;5.00;4.00;;;;;32.49;28.83;100210.25;5098376;27;45210;-74
2023/10/13 09:12:39;;;;;;;;;6.00;6.00;;;;;32.56;28.07;100208.03;5097109;27;45331;-74
2023/10/13 09:18:12;;;;;;;;;5.00;5.00;;;;;32.74;26.94;100187.00;5090807;27;45456;-77
2023/10/13 09:23:12;;;;;;;;;4.00;4.00;;;;;33.04;27.28;100205.66;5080491;27;45477;-80
2023/10/13 09:25:53;;;;;;;;;7.00;6.00;;;;;33.37;27.00;100209.72;5078668;27;45562;-76
2023/10/13 09:28:21;;;;;;;;;6.67;5.00;;;;;33.69;26.96;100215.56;5078337;27;45482;-81
2023/10/13 09:30:56;;;;;;;;;7.67;7.33;;;;;33.83;26.89;100220.84;5079634;27;45343;-85
2023/10/13 09:34:09;;;;;;;;;6.00;5.00;;;;;33.80;26.69;100218.34;5079755;27;45485;-76
2023/10/13 09:36:17;;;;;;;;;6.00;5.00;;;;;33.78;26.81;100220.31;5081726;27;45253;-75
2023/10/13 09:39:10;;;;;;;;;5.00;5.00;;;;;33.70;27.31;100233.53;5099094;27;45422;-76
2023/10/13 09:41:32;;;;;;;;;5.67;5.67;;;;;33.58;26.56;100232.53;5098415;27;46106;-75
2023/10/13 09:44:03;;;;;;;;;6.00;5.67;;;;;33.52;26.93;100224.00;5098131;27;45540;-74
2023/10/13 09:46:34;;;;;;;;;6.00;5.00;;;;;33.47;26.76;100227.03;5089092;27;45541;-76
2023/10/13 09:49:14;;;;;;;;;8.00;7.00;;;;;33.60;26.94;100229.72;5100498;27;45809;-75
2023/10/13 09:51:45;;;;;;;;;3.67;3.00;;;;;33.85;26.79;100235.16;5083182;27;45524;-76
2023/10/13 09:54:30;;;;;;;;;6.67;5.00;;;;;34.60;26.26;100244.13;5099873;27;45925;-75
2023/10/13 09:57:03;;;;;;;;;5.67;5.67;;;;;35.22;25.17;100237.66;5100148;27;45793;-74
2023/10/13 09:59:40;;;;;;;;;5.33;5.00;;;;;35.47;25.29;100233.84;5099773;27;45558;-75
2023/10/13 10:02:18;;;;;;;;;5.67;5.00;;;;;35.46;25.65;100223.97;5098296;27;45508;-75
2023/10/13 10:04:51;;;;;;;;;5.00;5.00;;;;;35.27;25.14;100227.28;5101130;27;45434;-76
2023/10/13 10:07:32;;;;;;;;;8.33;7.67;;;;;35.01;25.07;100227.44;5100785;27;45492;-75
2023/10/13 10:10:00;;;;;;;;;9.00;7.67;;;;;34.79;24.56;100211.09;5100699;27;46095;-76
2023/10/13 10:12:47;;;;;;;;;5.67;4.67;;;;;34.62;25.62;100226.78;5099770;27;45461;-75
2023/10/13 10:15:35;;;;;;;;;5.33;4.33;;;;;34.37;25.80;100224.19;5066203;27;45507;-75
2023/10/13 10:18:04;;;;;;;;;7.67;6.33;;;;;34.10;25.24;100217.06;5088370;27;45447;-77
2023/10/13 10:20:44;;;;;;;;;6.33;6.00;;;;;33.94;25.97;100232.75;5100857;27;46574;-75
2023/10/13 10:23:35;;;;;;;;;9.00;9.00;;;;;33.77;26.45;100232.13;5096534;27;45184;-75
2023/10/13 10:26:19;;;;;;;;;6.33;6.00;;;;;33.52;26.82;100224.84;5100145;27;45494;-75
2023/10/13 10:28:46;;;;;;;;;6.33;6.33;;;;;33.37;27.25;100223.25;5098860;27;45748;-75
2023/10/13 10:31:12;;;;;;;;;8.00;7.00;;;;;33.16;27.02;100206.66;5096184;27;46810;-76
2023/10/13 10:33:41;;;;;;;;;12.00;11.33;;;;;33.03;27.51;100218.31;5085067;27;46180;-75
2023/10/13 10:36:16;;;;;;;;;13.67;13.67;;;;;32.95;27.17;100220.69;5079486;27;45548;-74
2023/10/13 10:38:58;;;;;;;;;15.33;15.00;;;;;32.58;28.36;100220.47;5085681;27;45537;-75
2023/10/13 10:44:34;;;;;;;;;13.33;13.00;;;;;32.47;27.43;100218.47;5081883;27;45441;-74
2023/10/13 10:47:30;;;;;;;;;8.00;8.00;;;;;32.25;28.44;100210.03;5087677;27;45579;-71
2023/10/13 10:50:18;;;;;;;;;10.00;10.00;;;;;32.14;28.50;100216.16;5097138;27;45386;-76
2023/10/13 10:52:43;;;;;;;;;15.00;14.00;;;;;31.97;28.85;100203.69;5084724;27;45579;-80
2023/10/13 10:55:13;;;;;;;;;10.00;10.00;;;;;32.04;28.64;100221.28;5077211;27;46045;-76
2023/10/13 10:57:43;;;;;;;;;17.67;16.67;;;;;31.90;29.19;100203.25;5096447;27;45400;-75
2023/10/13 11:00:20;;;;;;;;;7.00;6.33;;;;;31.72;30.02;100196.34;5099112;27;45553;-75
2023/10/13 11:02:56;;;;;;;;;17.00;15.00;;;;;31.74;30.54;100215.16;5098272;27;45189;-75
2023/10/13 11:05:24;;;;;;;;;15.67;14.00;;;;;31.68;30.62;100224.50;5096705;27;45557;-75
2023/10/13 11:07:51;;;;;;;;;40.25;33.75;;;;;31.53;30.30;100207.41;5098059;27;45492;-76
2023/10/13 11:10:38;;;;;;;;;16.67;16.00;;;;;31.47;30.41;100203.25;5099258;27;45465;-76
2023/10/13 11:13:13;;;;;;;;;61.25;47.75;;;;;31.51;29.37;100212.94;5098490;27;45625;-75
2023/10/13 11:15:44;;;;;;;;;21.25;18.75;;;;;31.47;30.23;100213.19;5098500;27;45479;-76
2023/10/13 11:18:23;;;;;;;;;18.00;16.00;;;;;31.49;30.16;100214.84;5096170;27;45471;-76
2023/10/13 11:20:54;;;;;;;;;45.50;36.00;;;;;31.58;29.67;100220.66;5095981;27;45438;-76
2023/10/13 11:23:25;;;;;;;;;26.50;25.25;;;;;31.52;30.78;100193.06;5096015;27;45659;-76
2023/10/13 11:26:00;;;;;;;;;40.50;35.00;;;;;31.78;30.53;100220.25;5096032;27;45495;-76
2023/10/13 11:28:31;;;;;;;;;19.75;18.75;;;;;31.87;29.38;100216.06;5096173;27;45511;-76
2023/10/13 11:31:10;;;;;;;;;16.33;15.33;;;;;32.02;29.92;100212.41;5096887;27;45478;-76
2023/10/13 11:33:36;;;;;;;;;13.00;12.00;;;;;32.10;29.08;100207.38;5096839;27;45749;-76
2023/10/13 11:36:03;;;;;;;;;12.00;11.00;;;;;32.22;29.33;100197.59;5095773;27;45487;-76
2023/10/13 11:41:19;;;;;;;;;8.33;8.00;;;;;32.46;28.48;100188.84;5096400;27;45329;-75
2023/10/13 11:43:52;;;;;;;;;11.67;11.67;;;;;32.52;29.13;100198.38;5094908;27;47769;-75
2023/10/13 11:49:05;;;;;;;;;32.25;29.50;;;;;32.68;28.77;100189.13;5095658;27;45367;-76
2023/10/13 11:51:32;;;;;;;;;18.67;15.67;;;;;32.62;29.04;100181.44;5096955;27;45542;-76
2023/10/13 11:54:00;;;;;;;;;25.33;23.00;;;;;32.67;29.57;100175.75;5096136;27;45965;-75
2023/10/13 11:56:25;;;;;;;;;14.33;13.33;;;;;32.72;29.44;100170.00;5095554;27;45506;-77
2023/10/13 11:58:51;;;;;;;;;20.00;18.33;;;;;32.80;30.03;100171.19;5095124;27;45366;-76
2023/10/13 12:11:47;;;;;;;;;9.00;8.67;;;;;32.64;31.37;100157.88;5096874;27;45318;-76
2023/10/13 12:14:16;;;;;;;;;12.00;12.00;;;;;32.65;31.34;100145.19;5096572;27;46295;-76
2023/10/13 12:16:51;;;;;;;;;10.33;10.33;;;;;32.62;31.10;100145.44;5095918;27;45524;-76
2023/10/13 12:19:23;;;;;;;;;12.00;11.00;;;;;32.63;30.37;100148.03;5096033;27;45550;-76
2023/10/13 12:21:54;;;;;;;;;9.00;8.67;;;;;32.59;30.83;100135.69;5096078;27;45496;-76
2023/10/13 12:24:39;;;;;;;;;5.67;5.67;;;;;32.58;30.56;100133.09;5095649;27;46307;-76
2023/10/13 12:27:19;;;;;;;;;8.33;7.33;;;;;32.53;29.91;100132.50;5096186;27;45738;-75
2023/10/13 12:29:49;;;;;;;;;9.00;9.00;;;;;32.26;30.37;100093.72;5094790;27;45555;-76
2023/10/13 12:32:20;;;;;;;;;9.00;9.00;;;;;32.45;30.53;100114.97;5096221;27;45610;-76
2023/10/13 12:51:20;;;;;;;;;5.00;4.33;;;;;33.17;29.60;100113.69;5099449;27;45530;-76
2023/10/13 12:53:53;;;;;;;;;6.00;6.00;;;;;33.27;29.88;100114.75;5083531;27;45521;-76
2023/10/13 12:56:26;;;;;;;;;7.33;7.33;;;;;33.33;29.99;100092.66;5099492;27;45767;-76
2023/10/13 12:58:52;;;;;;;;;7.67;7.00;;;;;33.83;30.08;100112.47;5099949;27;45290;-76
2023/10/13 13:01:32;;;;;;;;;9.67;9.33;;;;;34.13;28.85;100100.31;5099500;27;45343;-76
2023/10/13 13:03:58;;;;;;;;;7.67;7.00;;;;;34.35;29.58;100101.41;5098833;27;45515;-74
2023/10/13 13:06:29;;;;;;;;;8.67;7.67;;;;;34.40;28.95;100101.91;5099218;27;45566;-76
2023/10/13 13:08:57;;;;;;;;;7.00;7.00;;;;;34.20;28.35;100077.22;5099969;27;45269;-72
2023/10/13 13:11:23;;;;;;;;;6.33;6.33;;;;;34.37;27.87;100096.75;5098655;27;45471;-76
2023/10/13 13:13:49;;;;;;;;;7.33;7.33;;;;;34.42;28.05;100097.25;5099043;27;45271;-75
2023/10/13 13:16:19;;;;;;;;;10.00;9.00;;;;;34.34;28.20;100102.38;5098744;27;45529;-76
2023/10/13 13:18:46;;;;;;;;;9.67;8.00;;;;;34.44;28.32;100101.59;5098870;27;45374;-76
2023/10/13 13:21:19;;;;;;;;;6.33;6.00;;;;;34.60;28.44;100101.25;5098100;27;45529;-75
2023/10/13 13:23:49;;;;;;;;;7.67;7.33;;;;;34.71;28.05;100105.00;5098728;27;45507;-75
2023/10/13 13:26:15;;;;;;;;;6.33;6.33;;;;;34.74;28.41;100115.59;5098705;27;45617;-76
2023/10/13 13:28:42;;;;;;;;;8.00;7.33;;;;;34.76;27.83;100116.34;5098630;27;45475;-76
2023/10/13 13:31:08;;;;;;;;;7.00;7.00;;;;;34.72;27.87;100121.19;5098554;27;45704;-74
2023/10/13 13:33:38;;;;;;;;;8.67;8.00;;;;;34.45;28.34;100097.88;5098857;27;45334;-76
2023/10/13 13:36:05;;;;;;;;;10.33;9.00;;;;;34.50;28.03;100119.22;5098883;27;45467;-76
2023/10/13 13:38:32;;;;;;;;;8.00;7.00;;;;;34.31;28.57;100119.75;5097419;27;45587;-75
2023/10/13 13:40:58;;;;;;;;;8.00;7.67;;;;;34.14;28.06;100125.56;5097913;27;45488;-76
2023/10/13 13:46:32;;;;;;;;;6.00;6.00;;;;;33.82;28.19;100140.56;5060388;28;45521;-76
2023/10/13 13:49:00;;;;;;;;;8.00;8.00;;;;;33.74;28.66;100142.09;5094224;27;45363;-76
2023/10/13 13:51:27;;;;;;;;;16.33;15.00;;;;;33.53;28.40;100125.53;5098152;27;45487;-75
2023/10/13 13:53:56;;;;;;;;;9.00;8.67;;;;;33.42;28.88;100138.00;5097325;27;45507;-75
2023/10/13 13:56:25;;;;;;;;;9.67;8.67;;;;;33.16;29.33;100149.84;5097833;27;46171;-76
2023/10/13 13:59:07;;;;;;;;;12.67;12.33;;;;;33.10;30.19;100140.31;5097009;27;45306;-76
2023/10/13 14:01:35;;;;;;;;;11.33;10.33;;;;;33.07;30.26;100145.91;5076893;27;45296;-76
2023/10/13 14:04:03;;;;;;;;;8.33;7.33;;;;;33.13;30.37;100150.03;5098691;27;45314;-75
2023/10/13 14:06:29;;;;;;;;;9.67;8.33;;;;;33.16;30.76;100164.22;5096193;27;46518;-76
2023/10/13 14:08:57;;;;;;;;;12.00;11.00;;;;;33.19;30.31;100171.28;5097545;27;45432;-74
2023/10/13 14:14:13;;;;;;;;;10.00;8.67;;;;;33.23;30.98;100161.97;5098403;27;45285;-75
2023/10/13 14:16:49;;;;;;;;;8.00;8.00;;;;;33.30;31.97;100179.50;5098306;27;45514;-75
2023/10/13 14:19:28;;;;;;;;;11.67;10.67;;;;;33.35;31.78;100174.63;5096641;27;46080;-75
2023/10/13 14:21:57;;;;;;;;;13.67;10.67;;;;;33.46;31.63;100179.25;5097967;27;45499;-75
2023/10/13 14:24:33;;;;;;;;;19.00;17.00;;;;;33.48;32.32;100177.31;5098210;27;45458;-74
2023/10/13 14:27:08;;;;;;;;;13.00;11.33;;;;;33.51;31.94;100173.53;5097737;27;45431;-76
2023/10/13 14:29:42;;;;;;;;;13.00;12.67;;;;;33.54;31.98;100179.56;5097652;27;45184;-75
2023/10/13 14:32:12;;;;;;;;;11.67;10.00;;;;;33.47;31.70;100176.44;5098231;27;45529;-75
2023/10/13 14:34:41;;;;;;;;;7.67;7.67;;;;;33.35;31.27;100173.78;5098552;27;45449;-76
2023/10/13 14:37:07;;;;;;;;;10.00;9.67;;;;;33.04;31.59;100152.38;5097655;27;45257;-74
2023/10/13 14:39:35;;;;;;;;;11.67;11.00;;;;;33.14;31.55;100171.59;5094300;27;45529;-74
2023/10/13 14:42:02;;;;;;;;;10.33;10.33;;;;;32.82;30.87;100149.47;5064112;27;45422;-75
2023/10/13 14:44:28;;;;;;;;;10.00;10.00;;;;;32.74;31.40;100168.06;5096941;27;45540;-76
2023/10/13 14:46:57;;;;;;;;;9.00;9.00;;;;;32.65;31.20;100174.94;5097155;27;46065;-76